Time;durP1;ratioP1;P1;durP2;ratioP2;P2;SDS_P1;SDS_P2;PMS_P1;PMS_P2;Temp;Humidity;BMP_temperature;BMP_pressure;BME280_temperature;BME280_humidity;BME280_pressure;Samples;Min_cycle;Max_cycle;Signal;HPM_P1;HPM_P2
2021/07/15 00:00:20;;;;;;;0.63;0.30;;;18.30;99.90;;;;;;4975134;28;20416;-79
2021/07/15 00:02:47;;;;;;;0.82;0.38;;;18.30;99.90;;;;;;4974144;28;20054;-78
2021/07/15 00:05:16;;;;;;;1.13;0.38;;;18.30;99.90;;;;;;4973928;28;20134;-78
2021/07/15 00:07:44;;;;;;;1.95;0.30;;;18.30;99.80;;;;;;4974074;28;20137;-78
2021/07/15 00:10:21;;;;;;;1.15;0.30;;;18.30;99.70;;;;;;4975523;28;20130;-78
2021/07/15 00:12:50;;;;;;;0.90;0.40;;;18.30;99.70;;;;;;4973006;28;20071;-77
2021/07/15 00:15:20;;;;;;;0.45;0.20;;;18.30;99.30;;;;;;4973762;28;20481;-78
2021/07/15 00:17:48;;;;;;;0.68;0.30;;;18.30;99.40;;;;;;4973746;28;20050;-78
2021/07/15 00:20:18;;;;;;;1.10;0.20;;;18.30;99.60;;;;;;4987153;28;20047;-78
2021/07/15 00:22:45;;;;;;;1.13;0.22;;;18.30;99.40;;;;;;4976327;28;20058;-79
2021/07/15 00:25:17;;;;;;;0.38;0.20;;;18.30;99.40;;;;;;4983089;28;20056;-80
2021/07/15 00:27:45;;;;;;;0.55;0.25;;;18.20;99.40;;;;;;4995606;28;20057;-78
2021/07/15 00:30:14;;;;;;;0.15;0.10;;;18.10;99.60;;;;;;4982220;28;20048;-79
2021/07/15 00:32:41;;;;;;;0.60;0.30;;;18.10;99.90;;;;;;5006486;28;20042;-80
2021/07/15 00:35:10;;;;;;;1.55;0.22;;;18.00;99.90;;;;;;5016590;28;20046;-80
2021/07/15 00:37:38;;;;;;;0.38;0.10;;;17.90;99.90;;;;;;4997540;28;20129;-78
2021/07/15 00:40:07;;;;;;;0.50;0.15;;;17.90;99.90;;;;;;4979758;28;20053;-77
2021/07/15 00:42:37;;;;;;;0.30;0.10;;;17.90;99.90;;;;;;4996595;28;20463;-79
2021/07/15 00:45:08;;;;;;;0.55;0.10;;;17.90;99.90;;;;;;4996941;28;20496;-78
2021/07/15 00:47:35;;;;;;;0.22;0.05;;;17.80;99.90;;;;;;4996691;28;20448;-80
2021/07/15 00:50:05;;;;;;;0.47;0.10;;;17.80;99.90;;;;;;4995318;28;20407;-79
2021/07/15 00:52:32;;;;;;;0.22;0.10;;;17.80;99.90;;;;;;4985977;28;20469;-79
2021/07/15 00:54:59;;;;;;;0.73;0.15;;;17.80;99.90;;;;;;4977076;28;20133;-78
2021/07/15 00:57:26;;;;;;;0.63;0.20;;;17.80;99.90;;;;;;4990119;28;20055;-78
2021/07/15 00:59:55;;;;;;;0.30;0.10;;;17.80;99.90;;;;;;4992887;28;20049;-78
2021/07/15 01:02:22;;;;;;;0.13;0.10;;;17.70;99.90;;;;;;4976833;28;20133;-79
2021/07/15 01:04:50;;;;;;;0.20;0.08;;;17.70;99.90;;;;;;4982377;28;20133;-76
2021/07/15 01:07:17;;;;;;;0.93;0.10;;;17.70;99.90;;;;;;4977169;28;20130;-77
2021/07/15 01:09:44;;;;;;;1.45;0.17;;;17.60;99.90;;;;;;4978143;28;20065;-78
2021/07/15 01:12:29;;;;;;;0.10;0.00;;;17.60;99.90;;;;;;4996407;28;20472;-78
2021/07/15 01:15:08;;;;;;;0.10;0.00;;;17.60;99.90;;;;;;4994852;28;20051;-78
2021/07/15 01:17:50;;;;;;;0.55;0.10;;;17.50;99.90;;;;;;4996452;28;20125;-78
2021/07/15 01:20:55;;;;;;;0.17;0.03;;;17.50;99.90;;;;;;4995331;28;20050;-78
2021/07/15 01:24:09;;;;;;;0.10;0.03;;;17.50;99.90;;;;;;4996487;28;20046;-79
2021/07/15 01:26:59;;;;;;;0.40;0.10;;;17.50;99.90;;;;;;4972174;28;20130;-79
2021/07/15 01:29:55;;;;;;;0.00;0.00;;;17.40;99.90;;;;;;4976531;28;20489;-79
2021/07/15 01:32:27;;;;;;;0.20;0.10;;;17.40;99.90;;;;;;4995724;28;20135;-79
2021/07/15 01:34:56;;;;;;;0.70;0.05;;;17.30;99.90;;;;;;4977944;28;20053;-79
2021/07/15 01:37:25;;;;;;;0.08;0.00;;;17.30;99.90;;;;;;4977533;28;20047;-79
2021/07/15 01:39:54;;;;;;;1.25;0.20;;;17.30;99.90;;;;;;4980048;28;20046;-78
2021/07/15 01:42:22;;;;;;;0.30;0.10;;;17.30;99.90;;;;;;4995854;28;20125;-78
2021/07/15 01:44:50;;;;;;;0.30;0.10;;;17.20;99.90;;;;;;4995431;28;20054;-78
2021/07/15 01:47:19;;;;;;;0.22;0.10;;;17.20;99.90;;;;;;4995694;28;20129;-79
2021/07/15 01:49:47;;;;;;;0.10;0.00;;;17.20;99.90;;;;;;4993928;28;20589;-78
2021/07/15 01:52:15;;;;;;;1.30;0.10;;;17.20;99.90;;;;;;4995568;28;20384;-78
2021/07/15 01:54:43;;;;;;;0.10;0.00;;;17.10;99.90;;;;;;4977267;28;20046;-79
2021/07/15 01:57:12;;;;;;;0.15;0.05;;;17.10;99.90;;;;;;4976208;28;20131;-78
2021/07/15 01:59:41;;;;;;;1.08;0.08;;;17.10;99.90;;;;;;4978259;28;20047;-77
2021/07/15 02:02:08;;;;;;;0.10;0.00;;;17.10;99.90;;;;;;4995392;28;20137;-78
2021/07/15 02:04:39;;;;;;;0.10;0.10;;;17.10;99.90;;;;;;4995330;28;20138;-79
2021/07/15 02:07:08;;;;;;;0.05;0.00;;;17.00;99.90;;;;;;4984892;28;20106;-80
2021/07/15 02:09:38;;;;;;;0.52;0.08;;;17.00;99.90;;;;;;4995130;28;20046;-79
2021/07/15 02:12:05;;;;;;;0.00;0.00;;;17.00;99.90;;;;;;4975827;28;20129;-79
2021/07/15 02:14:34;;;;;;;0.00;0.00;;;17.10;99.90;;;;;;4976056;28;20134;-78
2021/07/15 02:17:02;;;;;;;0.57;0.20;;;17.00;99.90;;;;;;4987972;28;20056;-78
2021/07/15 02:19:30;;;;;;;1.35;0.17;;;17.00;99.90;;;;;;4984909;28;20061;-78
2021/07/15 02:21:59;;;;;;;0.35;0.10;;;17.00;99.90;;;;;;4993243;28;20421;-78
2021/07/15 02:24:32;;;;;;;0.15;0.00;;;17.00;99.90;;;;;;4994950;28;20050;-77
2021/07/15 02:26:59;;;;;;;0.50;0.10;;;17.00;99.90;;;;;;4994969;28;20474;-77
2021/07/15 02:29:27;;;;;;;0.45;0.10;;;17.00;99.90;;;;;;4982891;28;20404;-78
2021/07/15 02:31:58;;;;;;;0.17;0.08;;;17.00;99.90;;;;;;4994531;28;20129;-78
2021/07/15 02:34:30;;;;;;;0.17;0.00;;;17.00;99.90;;;;;;4993548;28;20046;-79
2021/07/15 02:37:02;;;;;;;0.13;0.00;;;17.00;99.90;;;;;;4975319;28;20082;-79
2021/07/15 02:39:29;;;;;;;0.05;0.00;;;17.00;99.90;;;;;;4991222;28;20125;-78
2021/07/15 02:41:56;;;;;;;0.35;0.00;;;17.00;99.90;;;;;;4993692;28;20511;-76
2021/07/15 02:44:24;;;;;;;0.35;0.10;;;16.90;99.90;;;;;;4993098;28;20127;-77
2021/07/15 02:46:52;;;;;;;0.40;0.08;;;16.90;99.90;;;;;;4994400;28;20137;-78
2021/07/15 02:49:19;;;;;;;0.55;0.10;;;16.90;99.90;;;;;;4992191;28;20188;-78
2021/07/15 02:51:46;;;;;;;3.17;0.30;;;16.90;99.90;;;;;;4974898;28;20054;-78
2021/07/15 02:54:15;;;;;;;0.17;0.00;;;16.90;99.90;;;;;;4975140;28;20086;-78
2021/07/15 02:56:53;;;;;;;0.35;0.10;;;16.90;99.90;;;;;;4975071;28;20042;-78
2021/07/15 02:59:26;;;;;;;0.10;0.00;;;16.90;99.90;;;;;;4977054;28;20061;-78
2021/07/15 03:02:02;;;;;;;0.32;0.10;;;16.90;99.90;;;;;;4973995;28;20051;-78
2021/07/15 03:04:35;;;;;;;0.30;0.00;;;16.80;99.90;;;;;;4991610;28;20149;-78
2021/07/15 03:07:05;;;;;;;0.80;0.10;;;16.80;99.90;;;;;;4991541;28;20068;-78
2021/07/15 03:09:34;;;;;;;0.20;0.10;;;16.80;99.90;;;;;;4983508;28;20511;-78
2021/07/15 03:12:07;;;;;;;0.85;0.10;;;16.80;99.90;;;;;;4990974;28;20042;-78
2021/07/15 03:14:38;;;;;;;0.50;0.10;;;16.80;99.90;;;;;;4990528;28;20058;-78
2021/07/15 03:17:08;;;;;;;0.10;0.05;;;16.70;99.90;;;;;;4989191;28;20472;-78
2021/07/15 03:19:39;;;;;;;0.52;0.10;;;16.80;99.90;;;;;;4986566;28;20050;-78
2021/07/15 03:22:08;;;;;;;0.38;0.00;;;16.70;99.90;;;;;;4971182;28;20053;-79
2021/07/15 03:24:42;;;;;;;0.30;0.10;;;16.80;99.90;;;;;;4971141;28;20106;-76
2021/07/15 03:27:11;;;;;;;0.00;0.00;;;16.80;99.90;;;;;;4971183;28;20473;-77
2021/07/15 03:29:40;;;;;;;0.52;0.10;;;16.80;99.90;;;;;;4974787;28;20389;-77
2021/07/15 03:32:08;;;;;;;1.00;0.17;;;16.90;99.90;;;;;;4990435;28;20121;-78
2021/07/15 03:34:36;;;;;;;0.45;0.10;;;16.90;99.90;;;;;;4990597;28;20080;-78
2021/07/15 03:37:05;;;;;;;0.47;0.08;;;16.90;99.90;;;;;;4976452;28;20130;-78
2021/07/15 03:39:32;;;;;;;0.10;0.00;;;16.90;99.90;;;;;;4973009;28;20495;-78
2021/07/15 03:42:01;;;;;;;1.08;0.10;;;16.90;99.90;;;;;;4971212;28;20061;-78
2021/07/15 03:44:29;;;;;;;0.20;0.10;;;16.90;99.90;;;;;;4970708;28;20145;-77
2021/07/15 03:46:57;;;;;;;0.45;0.10;;;16.90;99.90;;;;;;4988779;28;20042;-77
2021/07/15 03:49:28;;;;;;;0.22;0.10;;;16.90;99.90;;;;;;4988854;28;20129;-78
2021/07/15 03:51:55;;;;;;;0.98;0.20;;;16.90;99.90;;;;;;4981572;28;20105;-79
2021/07/15 03:54:24;;;;;;;1.02;0.10;;;16.90;99.90;;;;;;4989684;28;20042;-77
2021/07/15 03:56:53;;;;;;;1.80;0.40;;;17.00;99.90;;;;;;4990387;28;20087;-78
2021/07/15 03:59:22;;;;;;;0.40;0.10;;;17.00;99.90;;;;;;4993595;28;20129;-76
2021/07/15 04:01:59;;;;;;;0.28;0.15;;;17.00;99.90;;;;;;4975919;28;20055;-77
2021/07/15 04:04:30;;;;;;;0.40;0.20;;;17.00;99.90;;;;;;4994828;28;20059;-78
2021/07/15 04:07:01;;;;;;;2.85;0.30;;;17.00;99.90;;;;;;4983471;28;20424;-78
2021/07/15 04:09:31;;;;;;;2.15;0.30;;;17.10;99.90;;;;;;4981173;28;20412;-77
2021/07/15 04:11:59;;;;;;;1.50;0.28;;;17.10;99.90;;;;;;4997408;28;20129;-78
2021/07/15 04:14:53;;;;;;;0.32;0.20;;;17.00;99.90;;;;;;4983947;28;20133;-79
2021/07/15 04:17:21;;;;;;;0.75;0.30;;;17.00;99.90;;;;;;4975593;28;20488;-77
2021/07/15 04:19:48;;;;;;;0.98;0.20;;;17.00;99.90;;;;;;4983135;28;20133;-78
2021/07/15 04:22:16;;;;;;;1.27;0.20;;;16.90;99.90;;;;;;4979116;28;20396;-78
2021/07/15 04:24:44;;;;;;;1.17;0.28;;;16.90;99.90;;;;;;4981250;28;20153;-77
2021/07/15 04:27:12;;;;;;;0.75;0.30;;;16.80;99.90;;;;;;4986877;28;20567;-77
2021/07/15 04:29:41;;;;;;;0.85;0.20;;;16.80;99.90;;;;;;4981420;28;20054;-79
2021/07/15 04:32:17;;;;;;;0.82;0.20;;;16.90;99.90;;;;;;4997351;28;20149;-79
2021/07/15 04:34:46;;;;;;;0.52;0.20;;;16.90;99.90;;;;;;4996713;28;20129;-78
2021/07/15 04:37:17;;;;;;;1.23;0.20;;;16.90;99.90;;;;;;4977486;28;20046;-79
2021/07/15 04:39:45;;;;;;;1.17;0.30;;;16.90;99.90;;;;;;4977521;28;20050;-77
2021/07/15 04:42:12;;;;;;;0.90;0.20;;;17.00;99.90;;;;;;4977107;28;20057;-78
2021/07/15 04:44:42;;;;;;;1.27;0.30;;;17.00;99.90;;;;;;4977189;28;20063;-77
2021/07/15 04:47:11;;;;;;;1.27;0.32;;;17.10;99.90;;;;;;4991898;28;20146;-79
2021/07/15 04:49:38;;;;;;;0.75;0.17;;;17.10;99.90;;;;;;4996457;28;20129;-78
2021/07/15 04:52:08;;;;;;;0.52;0.20;;;17.10;99.90;;;;;;4996480;28;20053;-78
2021/07/15 04:54:37;;;;;;;0.70;0.17;;;17.10;99.90;;;;;;4996576;28;20133;-78
2021/07/15 04:57:09;;;;;;;0.60;0.20;;;17.20;99.90;;;;;;4995100;28;20049;-78
2021/07/15 04:59:36;;;;;;;0.65;0.20;;;17.20;99.90;;;;;;4996616;28;20046;-78
2021/07/15 05:02:05;;;;;;;0.85;0.25;;;17.20;99.90;;;;;;4996384;28;20050;-78
2021/07/15 05:04:33;;;;;;;1.05;0.30;;;17.20;99.90;;;;;;4996641;28;20121;-78
2021/07/15 05:07:00;;;;;;;0.20;0.10;;;17.30;99.90;;;;;;4996392;28;20056;-77
2021/07/15 05:09:27;;;;;;;0.25;0.10;;;17.20;99.90;;;;;;4996281;28;20077;-78
2021/07/15 05:11:54;;;;;;;0.50;0.10;;;17.30;99.90;;;;;;4994684;28;20047;-77
2021/07/15 05:14:21;;;;;;;0.55;0.10;;;17.30;99.90;;;;;;4978087;28;20655;-79
2021/07/15 05:16:48;;;;;;;2.00;0.20;;;17.30;99.90;;;;;;4976824;28;20449;-79
2021/07/15 05:19:17;;;;;;;0.35;0.10;;;17.40;99.90;;;;;;4976919;28;20129;-78
2021/07/15 05:21:44;;;;;;;1.02;0.17;;;17.40;99.90;;;;;;4976689;28;20057;-78
2021/07/15 05:24:11;;;;;;;0.77;0.30;;;17.50;99.90;;;;;;4976697;28;20134;-78
2021/07/15 05:26:38;;;;;;;0.55;0.30;;;17.50;99.90;;;;;;4979119;28;20129;-79
2021/07/15 05:29:05;;;;;;;0.60;0.20;;;17.60;99.90;;;;;;4996090;28;20131;-78
2021/07/15 05:31:32;;;;;;;1.25;0.22;;;17.50;99.90;;;;;;4995908;28;20137;-78
2021/07/15 05:33:59;;;;;;;1.08;0.20;;;17.60;99.90;;;;;;4995797;28;20054;-77
2021/07/15 05:36:27;;;;;;;1.45;0.20;;;17.60;99.90;;;;;;4995934;28;20148;-78
2021/07/15 05:38:54;;;;;;;1.38;0.20;;;17.70;99.90;;;;;;4987479;28;20042;-79
2021/07/15 05:41:21;;;;;;;1.40;0.20;;;17.70;99.90;;;;;;4995581;28;20136;-79
2021/07/15 05:43:49;;;;;;;0.57;0.17;;;17.70;99.90;;;;;;4995090;28;20555;-78
2021/07/15 05:46:16;;;;;;;0.45;0.10;;;17.70;99.90;;;;;;4995566;28;20487;-79
2021/07/15 05:48:43;;;;;;;0.93;0.20;;;17.70;99.90;;;;;;4994866;28;20054;-79
2021/07/15 05:51:10;;;;;;;2.08;0.20;;;17.70;99.90;;;;;;4995811;28;20132;-79
2021/07/15 05:53:38;;;;;;;0.22;0.10;;;17.70;99.90;;;;;;4995732;28;20129;-79
2021/07/15 05:56:06;;;;;;;0.00;0.00;;;17.70;99.90;;;;;;4995430;28;20073;-78
2021/07/15 05:58:33;;;;;;;1.65;0.25;;;17.70;99.90;;;;;;4991243;28;20121;-78
2021/07/15 06:01:00;;;;;;;0.52;0.15;;;17.70;99.90;;;;;;4975863;28;20205;-78
2021/07/15 06:03:27;;;;;;;0.65;0.10;;;17.80;99.90;;;;;;4975886;28;20134;-78
2021/07/15 06:05:54;;;;;;;0.22;0.10;;;17.80;99.90;;;;;;4976143;28;20067;-78
2021/07/15 06:08:21;;;;;;;0.75;0.20;;;17.80;99.90;;;;;;4975823;28;20127;-78
2021/07/15 06:10:49;;;;;;;0.85;0.20;;;17.90;99.90;;;;;;4977843;28;20060;-77
2021/07/15 06:13:16;;;;;;;1.38;0.20;;;17.90;99.90;;;;;;4995189;28;20133;-78
2021/07/15 06:15:43;;;;;;;1.08;0.20;;;17.90;99.90;;;;;;4994910;28;20129;-78
2021/07/15 06:18:10;;;;;;;1.17;0.10;;;18.00;99.90;;;;;;4995041;28;20046;-78
2021/07/15 06:20:37;;;;;;;1.85;0.30;;;18.00;99.90;;;;;;4994225;28;20678;-78
2021/07/15 06:23:05;;;;;;;0.52;0.20;;;18.00;99.90;;;;;;4995044;28;20133;-78
2021/07/15 06:25:32;;;;;;;1.58;0.28;;;18.10;99.90;;;;;;4992586;28;20130;-78
2021/07/15 06:28:01;;;;;;;0.68;0.20;;;18.10;99.90;;;;;;4975277;28;20145;-79
2021/07/15 06:30:28;;;;;;;3.03;0.32;;;18.10;99.90;;;;;;4980031;28;20125;-77
2021/07/15 06:32:55;;;;;;;1.08;0.35;;;18.10;99.90;;;;;;4994692;28;20147;-79
2021/07/15 06:35:23;;;;;;;0.88;0.30;;;18.00;99.90;;;;;;4994924;28;20121;-77
2021/07/15 06:37:53;;;;;;;0.88;0.30;;;18.00;99.90;;;;;;4994887;28;20050;-79
2021/07/15 06:40:21;;;;;;;1.48;0.50;;;18.00;99.90;;;;;;4991911;28;20049;-79
2021/07/15 06:42:49;;;;;;;1.45;0.40;;;17.90;99.90;;;;;;4974842;28;20054;-78
2021/07/15 06:45:18;;;;;;;1.20;0.10;;;17.90;99.90;;;;;;4975232;28;20053;-78
2021/07/15 06:47:45;;;;;;;1.25;0.30;;;17.90;99.90;;;;;;4975081;28;20473;-77
2021/07/15 06:50:15;;;;;;;1.08;0.30;;;17.90;99.90;;;;;;4974937;28;20122;-79
2021/07/15 06:52:43;;;;;;;0.50;0.20;;;17.90;99.90;;;;;;4976057;28;20050;-80
2021/07/15 06:55:11;;;;;;;1.05;0.20;;;17.90;99.90;;;;;;4974966;28;20599;-78
2021/07/15 06:57:39;;;;;;;0.38;0.20;;;18.00;99.90;;;;;;4990353;28;20678;-78
2021/07/15 07:00:09;;;;;;;1.20;0.20;;;18.00;99.90;;;;;;4994300;28;20133;-78
2021/07/15 07:02:40;;;;;;;0.90;0.22;;;18.00;99.90;;;;;;4994095;28;20141;-78
2021/07/15 07:05:09;;;;;;;0.90;0.20;;;18.00;99.90;;;;;;4993175;28;20512;-78
2021/07/15 07:07:36;;;;;;;1.70;0.38;;;18.10;99.90;;;;;;4981937;28;20129;-78
2021/07/15 07:10:05;;;;;;;1.10;0.30;;;18.20;99.90;;;;;;4974416;28;20092;-79
2021/07/15 07:12:32;;;;;;;0.63;0.20;;;18.30;99.90;;;;;;4974826;28;20129;-79
2021/07/15 07:14:59;;;;;;;1.15;0.20;;;18.30;99.90;;;;;;4974656;28;20079;-78
2021/07/15 07:17:26;;;;;;;0.57;0.20;;;18.40;99.90;;;;;;4975632;28;20396;-78
2021/07/15 07:19:55;;;;;;;1.25;0.28;;;18.50;99.90;;;;;;4974860;28;20053;-78
2021/07/15 07:22:22;;;;;;;0.15;0.10;;;18.60;99.90;;;;;;4974270;28;20093;-80
2021/07/15 07:24:50;;;;;;;0.38;0.10;;;18.70;99.90;;;;;;4986928;28;20500;-79
2021/07/15 07:27:17;;;;;;;0.63;0.20;;;18.70;99.90;;;;;;4994100;28;20133;-79
2021/07/15 07:29:44;;;;;;;0.60;0.10;;;18.80;99.90;;;;;;4992423;28;20125;-78
2021/07/15 07:32:11;;;;;;;1.60;0.20;;;18.80;99.90;;;;;;4993182;28;20049;-77
2021/07/15 07:34:38;;;;;;;1.30;0.13;;;18.80;99.90;;;;;;4993749;28;20096;-78
2021/07/15 07:37:06;;;;;;;0.30;0.10;;;18.90;99.90;;;;;;4993689;28;20050;-79
2021/07/15 07:39:34;;;;;;;0.57;0.10;;;18.80;99.70;;;;;;4994149;28;20050;-79
2021/07/15 07:42:01;;;;;;;1.63;0.25;;;18.80;99.60;;;;;;4993748;28;20137;-78
2021/07/15 07:44:28;;;;;;;0.57;0.20;;;18.90;99.80;;;;;;4993754;28;20142;-78
2021/07/15 07:46:55;;;;;;;0.57;0.10;;;18.90;99.90;;;;;;4991978;28;20567;-79
2021/07/15 07:49:22;;;;;;;0.32;0.10;;;19.00;99.90;;;;;;4993693;28;20050;-78
2021/07/15 07:51:49;;;;;;;0.75;0.20;;;19.00;99.70;;;;;;4993631;28;20055;-79
2021/07/15 07:54:17;;;;;;;1.17;0.22;;;19.10;99.50;;;;;;4993714;28;20130;-78
2021/07/15 07:56:44;;;;;;;1.42;0.30;;;19.10;98.80;;;;;;4993749;28;20129;-78
2021/07/15 07:59:11;;;;;;;0.32;0.10;;;19.00;98.60;;;;;;4993410;28;20583;-78
2021/07/15 08:01:39;;;;;;;0.45;0.10;;;18.90;99.00;;;;;;4991735;28;20057;-78
2021/07/15 08:04:07;;;;;;;2.03;0.25;;;18.80;99.20;;;;;;4993779;28;20060;-79
2021/07/15 08:06:36;;;;;;;0.30;0.20;;;18.70;99.60;;;;;;4977112;28;20129;-78
2021/07/15 08:09:07;;;;;;;1.00;0.32;;;18.70;99.70;;;;;;4974042;28;20047;-80
2021/07/15 08:11:36;;;;;;;1.10;0.30;;;18.80;99.80;;;;;;4973988;28;20086;-78
2021/07/15 08:14:04;;;;;;;1.83;0.40;;;18.80;99.70;;;;;;4973913;28;20093;-79
2021/07/15 08:16:31;;;;;;;0.77;0.20;;;18.90;99.60;;;;;;4974710;28;20201;-78
2021/07/15 08:18:58;;;;;;;0.45;0.10;;;18.90;99.50;;;;;;4973928;28;20476;-78
2021/07/15 08:21:26;;;;;;;1.65;0.30;;;19.00;99.80;;;;;;4973754;28;20472;-78
2021/07/15 08:23:53;;;;;;;0.50;0.13;;;19.10;99.70;;;;;;4973959;28;20097;-77
2021/07/15 08:26:20;;;;;;;0.50;0.20;;;19.20;99.40;;;;;;4973951;28;20058;-78
2021/07/15 08:28:49;;;;;;;0.95;0.25;;;19.30;99.40;;;;;;4973747;28;20129;-78
2021/07/15 08:31:16;;;;;;;1.92;0.63;;;19.40;98.90;;;;;;4974858;28;20047;-78
2021/07/15 08:33:44;;;;;;;0.30;0.10;;;19.40;98.90;;;;;;4973942;28;20138;-78
2021/07/15 08:36:11;;;;;;;1.52;0.20;;;19.40;98.60;;;;;;4973443;28;20049;-79
2021/07/15 08:38:40;;;;;;;0.73;0.30;;;19.50;98.30;;;;;;4973770;28;20097;-79
2021/07/15 08:41:07;;;;;;;1.05;0.28;;;19.50;97.80;;;;;;4973808;28;20050;-77
2021/07/15 08:43:38;;;;;;;1.35;0.15;;;19.40;98.10;;;;;;4975332;28;20058;-76
2021/07/15 08:46:07;;;;;;;0.25;0.25;;;19.40;97.90;;;;;;4993408;28;20360;-77
2021/07/15 08:48:35;;;;;;;0.15;0.10;;;19.30;97.90;;;;;;4996734;28;20048;-78
2021/07/15 08:51:02;;;;;;;0.85;0.32;;;19.20;97.80;;;;;;4996841;28;20133;-78
2021/07/15 08:53:31;;;;;;;0.57;0.20;;;19.10;98.20;;;;;;4995085;28;20133;-76
2021/07/15 08:58:45;;;;;;;0.10;0.00;;;19.10;98.70;;;;;;4976976;28;20177;-77
2021/07/15 09:01:14;;;;;;;0.63;0.28;;;19.00;99.20;;;;;;4976940;28;20151;-78
2021/07/15 09:03:41;;;;;;;0.68;0.10;;;19.00;99.00;;;;;;4976881;28;20065;-78
2021/07/15 09:06:09;;;;;;;0.10;0.10;;;18.90;98.70;;;;;;4976901;28;20053;-79
2021/07/15 09:08:36;;;;;;;0.60;0.20;;;18.90;98.60;;;;;;4978003;28;20053;-79
2021/07/15 09:11:04;;;;;;;2.15;0.20;;;18.90;98.60;;;;;;4976770;28;20146;-79
2021/07/15 09:13:31;;;;;;;0.55;0.30;;;18.80;98.90;;;;;;4976818;28;20153;-78
2021/07/15 09:15:58;;;;;;;0.57;0.17;;;18.80;98.90;;;;;;4976795;28;20046;-77
2021/07/15 09:18:27;;;;;;;0.82;0.17;;;18.80;99.00;;;;;;4976682;28;20082;-79
2021/07/15 09:20:54;;;;;;;0.28;0.17;;;18.70;98.80;;;;;;4976635;28;20050;-79
2021/07/15 09:23:21;;;;;;;0.55;0.30;;;18.70;99.20;;;;;;4977453;28;20141;-79
2021/07/15 09:26:03;;;;;;;0.73;0.20;;;18.70;99.30;;;;;;4976583;28;20453;-78
2021/07/15 09:28:32;;;;;;;1.00;0.20;;;18.70;99.70;;;;;;4974349;28;20054;-78
2021/07/15 09:31:16;;;;;;;0.22;0.20;;;18.70;99.90;;;;;;4976421;28;20493;-78
2021/07/15 09:33:46;;;;;;;0.40;0.10;;;18.60;99.80;;;;;;4975153;28;20129;-78
2021/07/15 09:36:17;;;;;;;0.43;0.10;;;18.60;99.90;;;;;;4976357;28;20507;-78
2021/07/15 09:38:46;;;;;;;0.95;0.20;;;18.60;99.70;;;;;;4982645;28;20047;-78
2021/07/15 09:41:19;;;;;;;0.73;0.10;;;18.60;99.70;;;;;;4995691;28;20046;-78
2021/07/15 09:43:47;;;;;;;0.65;0.20;;;18.60;99.90;;;;;;4995510;28;20094;-77
2021/07/15 09:46:23;;;;;;;1.10;0.15;;;18.60;99.90;;;;;;4995740;28;20129;-78
2021/07/15 09:49:04;;;;;;;1.63;0.22;;;18.60;99.90;;;;;;4994843;28;20050;-79
2021/07/15 09:51:43;;;;;;;0.43;0.20;;;18.60;99.90;;;;;;4991039;28;20050;-77
2021/07/15 09:54:10;;;;;;;2.25;0.20;;;18.60;99.90;;;;;;4987898;28;20058;-78
2021/07/15 09:56:46;;;;;;;3.63;0.93;;;18.60;99.90;;;;;;4991774;28;20154;-76
2021/07/15 09:59:14;;;;;;;0.73;0.20;;;18.60;99.90;;;;;;4991263;28;20047;-79
2021/07/15 10:01:48;;;;;;;0.30;0.10;;;18.60;99.90;;;;;;4991171;28;20145;-78
2021/07/15 10:04:23;;;;;;;;;;;18.70;99.90;;;;;;4991963;28;20129;-78
2021/07/15 10:06:51;;;;;;;0.57;0.20;;;18.80;99.90;;;;;;4989756;28;20027;-77
2021/07/15 10:09:26;;;;;;;1.55;0.40;;;18.90;99.90;;;;;;4985826;28;20054;-78
2021/07/15 10:11:57;;;;;;;0.73;0.17;;;19.10;99.90;;;;;;4972121;28;20085;-78
2021/07/15 10:14:36;;;;;;;1.90;0.50;;;19.20;99.90;;;;;;4971777;28;20423;-81
2021/07/15 10:17:04;;;;;;;1.40;0.40;;;19.30;99.90;;;;;;4972754;28;20047;-78
2021/07/15 10:19:33;;;;;;;0.77;0.30;;;19.30;99.90;;;;;;4975554;28;20489;-78
2021/07/15 10:22:03;;;;;;;1.02;0.40;;;19.40;99.90;;;;;;4978256;28;20463;-79
2021/07/15 10:24:31;;;;;;;1.20;0.25;;;19.50;99.90;;;;;;4992222;28;20090;-80
2021/07/15 10:27:03;;;;;;;2.10;0.30;;;19.70;99.90;;;;;;4992071;28;20101;-80
2021/07/15 10:29:33;;;;;;;2.33;0.30;;;19.70;99.90;;;;;;4992099;28;20046;-80
2021/07/15 10:32:01;;;;;;;0.55;0.15;;;19.80;99.90;;;;;;4990561;28;20569;-79
2021/07/15 10:34:30;;;;;;;0.63;0.20;;;19.80;99.90;;;;;;4992663;28;20085;-80
2021/07/15 10:37:01;;;;;;;0.55;0.30;;;19.80;99.70;;;;;;5002366;28;20045;-80
2021/07/15 10:39:30;;;;;;;0.50;0.10;;;19.80;99.40;;;;;;5010839;28;20137;-79
2021/07/15 10:42:01;;;;;;;0.40;0.30;;;19.90;99.80;;;;;;5010050;28;20058;-79
2021/07/15 10:44:28;;;;;;;2.83;0.50;;;19.90;99.40;;;;;;5009845;28;20054;-79
2021/07/15 10:46:58;;;;;;;1.30;0.30;;;20.00;99.60;;;;;;4988263;28;20094;-79
2021/07/15 10:49:26;;;;;;;0.82;0.40;;;20.10;99.60;;;;;;4980107;28;20137;-79
2021/07/15 10:51:56;;;;;;;0.52;0.25;;;20.20;99.60;;;;;;4988355;28;20508;-80
2021/07/15 10:54:26;;;;;;;2.35;0.73;;;20.30;99.70;;;;;;4970719;28;20055;-79
2021/07/15 10:56:54;;;;;;;1.83;0.40;;;20.40;99.30;;;;;;4989392;28;20468;-80
2021/07/15 10:59:27;;;;;;;1.80;0.47;;;20.50;99.30;;;;;;4990299;28;20140;-80
2021/07/15 11:01:59;;;;;;;1.27;0.40;;;20.70;99.10;;;;;;4989390;28;20058;-80
2021/07/15 11:04:37;;;;;;;1.75;0.45;;;20.80;98.40;;;;;;4990440;28;20400;-80
2021/07/15 11:07:24;;;;;;;0.98;0.35;;;20.90;98.10;;;;;;4977609;28;20074;-80
2021/07/15 11:09:55;;;;;;;1.08;0.32;;;21.00;98.00;;;;;;4970622;28;20500;-79
2021/07/15 11:12:36;;;;;;;0.88;0.30;;;21.10;97.80;;;;;;4970641;28;20046;-80
2021/07/15 11:15:09;;;;;;;0.73;0.20;;;21.20;97.70;;;;;;4970297;28;20125;-79
2021/07/15 11:17:46;;;;;;;1.80;0.40;;;21.40;97.60;;;;;;4970539;28;20129;-80
2021/07/15 11:20:13;;;;;;;1.67;0.40;;;21.50;96.30;;;;;;4986048;28;20104;-81
2021/07/15 11:22:50;;;;;;;0.65;0.30;;;21.50;95.90;;;;;;4971251;28;20078;-81
2021/07/15 11:25:39;;;;;;;2.65;0.40;;;21.50;95.90;;;;;;4970715;28;20086;-80
2021/07/15 11:28:21;;;;;;;0.65;0.30;;;21.50;96.00;;;;;;4969851;28;20493;-78
2021/07/15 11:30:52;;;;;;;0.90;0.30;;;21.60;96.20;;;;;;4986350;28;20050;-79
2021/07/15 11:33:39;;;;;;;0.57;0.30;;;21.50;95.90;;;;;;5001945;28;20050;-79
2021/07/15 11:36:11;;;;;;;1.60;0.47;;;21.50;95.70;;;;;;4991199;28;20054;-79
2021/07/15 11:38:41;;;;;;;1.05;0.40;;;21.40;95.40;;;;;;4990636;28;20066;-80
2021/07/15 11:41:12;;;;;;;0.75;0.30;;;21.30;95.30;;;;;;4977368;28;20109;-79
2021/07/15 11:43:56;;;;;;;1.63;0.40;;;21.10;95.20;;;;;;4970888;28;20063;-80
2021/07/15 11:46:34;;;;;;;2.28;0.50;;;20.90;95.20;;;;;;4972489;28;20408;-78
2021/07/15 11:49:09;;;;;;;1.80;0.43;;;20.80;95.60;;;;;;4971478;28;20051;-79
2021/07/15 11:51:43;;;;;;;1.58;0.50;;;20.70;95.90;;;;;;4971275;28;20055;-79
2021/07/15 11:54:26;;;;;;;;;;;20.50;96.20;;;;;;4971965;28;20745;-79
2021/07/15 11:57:27;;;;;;;1.30;0.43;;;20.40;96.30;;;;;;4971128;28;19960;-81
2021/07/15 12:00:15;;;;;;;1.55;0.52;;;20.40;96.60;;;;;;4972107;28;20042;-79
2021/07/15 12:02:46;;;;;;;1.08;0.40;;;20.40;96.60;;;;;;4990188;28;20050;-79
2021/07/15 12:05:18;;;;;;;1.45;0.40;;;20.30;96.60;;;;;;4972621;28;20105;-79
2021/07/15 12:07:48;;;;;;;1.17;0.30;;;20.30;96.90;;;;;;4979427;28;20062;-79
2021/07/15 12:10:26;;;;;;;2.75;0.75;;;20.30;97.10;;;;;;4988273;28;20154;-78
2021/07/15 12:12:59;;;;;;;1.25;0.40;;;20.30;97.50;;;;;;4971781;28;20050;-80
2021/07/15 12:15:28;;;;;;;0.82;0.45;;;20.30;97.70;;;;;;4975690;28;20050;-80
2021/07/15 12:17:58;;;;;;;0.95;0.30;;;20.20;97.80;;;;;;4984272;28;20094;-80
2021/07/15 12:20:37;;;;;;;1.17;0.40;;;20.20;98.00;;;;;;4974074;28;20050;-81
2021/07/15 12:23:05;;;;;;;0.93;0.30;;;20.20;97.80;;;;;;4978071;28;20078;-80
2021/07/15 12:25:35;;;;;;;1.05;0.40;;;20.20;97.60;;;;;;4991515;28;20121;-80
2021/07/15 12:28:07;;;;;;;1.20;0.40;;;20.30;97.70;;;;;;4992732;28;20046;-80
2021/07/15 12:30:46;;;;;;;1.17;0.40;;;20.20;98.30;;;;;;4975237;28;20043;-80
2021/07/15 12:33:15;;;;;;;1.40;0.40;;;20.30;98.10;;;;;;4988959;28;20054;-80
2021/07/15 12:35:44;;;;;;;0.80;0.40;;;20.30;97.80;;;;;;4974635;28;20043;-80
2021/07/15 12:38:33;;;;;;;0.60;0.30;;;20.40;97.80;;;;;;4986366;28;20105;-80
2021/07/15 12:41:14;;;;;;;1.65;0.60;;;20.50;97.60;;;;;;4990903;28;20506;-80
2021/07/15 12:43:49;;;;;;;1.20;0.55;;;20.60;97.30;;;;;;4994096;28;20105;-80
2021/07/15 12:46:19;;;;;;;1.50;0.35;;;20.60;97.20;;;;;;4993522;28;20146;-79
2021/07/15 12:48:49;;;;;;;1.50;0.40;;;20.50;97.00;;;;;;4994204;28;20125;-80
2021/07/15 12:51:18;;;;;;;1.42;0.40;;;20.60;96.80;;;;;;4974896;28;20134;-80
2021/07/15 12:53:49;;;;;;;2.10;0.35;;;20.50;96.90;;;;;;4974336;28;20137;-80
2021/07/15 12:56:21;;;;;;;0.70;0.30;;;20.50;96.70;;;;;;4974297;28;20050;-79
2021/07/15 12:59:04;;;;;;;3.03;0.50;;;20.50;96.60;;;;;;4974487;28;20195;-80
2021/07/15 13:01:32;;;;;;;0.82;0.40;;;20.50;96.80;;;;;;4974392;28;20059;-80
2021/07/15 13:04:04;;;;;;;0.98;0.40;;;20.50;96.80;;;;;;4974567;28;20057;-80
2021/07/15 13:06:32;;;;;;;0.65;0.30;;;20.50;96.80;;;;;;4974471;28;20496;-80